Terminal Aerodrome Forecast
Issued by NWS Detroit/Pontiac, MI

Home | Current Version | Previous Version | Text Only | Print | Product List | Glossary On
Versions: 1 2 3 4 5 6 7 8 9 10 11 12 13 14 15 16
000
FTUS43 KDTX 281500 AAB
TAFFNT
TAF AMD
KFNT 281518Z 2815/2912 34012G20KT P6SM BKN025 OVC060
     FM281600 33013G20KT P6SM BKN045
     FM282200 33010KT P6SM SCT050
     FM290400 27008KT P6SM SCT050 BKN120 OVC250=

USA.gov is the U.S. government's official web portal to all federal, state and local government web resources and services.